createdAt,value
2019-04-21T00:01:54.090Z,11.93
2019-04-21T00:04:33.268Z,12.40
2019-04-21T00:07:15.993Z,12.23
2019-04-21T00:09:52.400Z,11.90
2019-04-21T00:12:17.073Z,11.53
2019-04-21T00:14:42.512Z,11.97
2019-04-21T00:17:05.392Z,12.27
2019-04-21T00:19:35.710Z,11.47
2019-04-21T00:22:19.403Z,12.73
2019-04-21T00:24:46.057Z,12.60
2019-04-21T00:27:23.261Z,13.23
2019-04-21T00:29:52.001Z,12.17
2019-04-21T00:32:20.726Z,12.20
2019-04-21T00:34:34.169Z,12.83
2019-04-21T00:37:12.321Z,12.90
2019-04-21T00:42:25.187Z,13.63
2019-04-21T00:44:44.853Z,12.40
2019-04-21T00:47:26.649Z,13.83
2019-04-21T00:49:56.600Z,13.83
2019-04-21T00:55:38.486Z,13.23
2019-04-21T00:58:03.465Z,14.40
2019-04-21T01:00:32.444Z,14.03
2019-04-21T01:03:06.465Z,13.77
2019-04-21T01:05:37.474Z,14.70
2019-04-21T01:07:59.444Z,14.17
2019-04-21T01:10:24.239Z,14.23
2019-04-21T01:13:04.309Z,14.63
2019-04-21T01:15:37.473Z,15.27
2019-04-21T01:18:07.269Z,14.93
2019-04-21T01:20:17.297Z,13.60
2019-04-21T01:22:42.108Z,14.93
2019-04-21T01:25:19.972Z,13.63
2019-04-21T01:27:56.464Z,15.23
2019-04-21T01:30:29.777Z,14.40
2019-04-21T01:33:06.357Z,15.57
2019-04-21T01:35:32.965Z,15.47
2019-04-21T01:38:04.966Z,15.07
2019-04-21T01:40:43.131Z,13.13
2019-04-21T01:42:56.775Z,15.17
2019-04-21T01:45:27.967Z,15.23
2019-04-21T01:47:57.505Z,15.23
2019-04-21T01:50:28.932Z,15.47
2019-04-21T01:53:15.453Z,15.47
2019-04-21T01:55:55.938Z,14.80
2019-04-21T01:58:24.711Z,15.23
2019-04-21T02:01:02.284Z,15.13
2019-04-21T02:06:12.529Z,14.77
2019-04-21T02:08:34.620Z,15.20
2019-04-21T02:11:11.195Z,16.40
2019-04-21T02:13:35.514Z,15.57
2019-04-21T02:18:39.579Z,16.83
2019-04-21T02:20:57.370Z,17.57
2019-04-21T02:23:46.385Z,16.73
2019-04-21T02:26:09.710Z,16.03
2019-04-21T02:28:50.211Z,15.77
2019-04-21T02:33:56.202Z,17.23
2019-04-21T02:36:37.261Z,17.73
2019-04-21T02:39:00.695Z,17.23
2019-04-21T02:41:26.581Z,17.07
2019-04-21T02:43:52.211Z,18.93
2019-04-21T02:46:23.753Z,18.43
2019-04-21T02:51:21.944Z,18.10
2019-04-21T02:54:24.617Z,17.83
2019-04-21T02:56:28.390Z,17.23
2019-04-21T02:59:17.281Z,16.90
2019-04-21T03:07:49.672Z,17.43
2019-04-21T03:10:04.821Z,17.67
2019-04-21T03:12:28.856Z,17.63
2019-04-21T03:15:03.949Z,17.73
2019-04-21T03:22:32.388Z,15.63
2019-04-21T03:25:23.122Z,16.77
2019-04-21T03:29:59.190Z,17.70
2019-04-21T03:35:33.848Z,17.37
2019-04-21T03:37:33.240Z,17.47
2019-04-21T03:40:05.271Z,18.03
2019-04-21T03:42:34.803Z,17.40
2019-04-21T03:45:03.601Z,16.80
2019-04-21T03:50:04.788Z,16.30
2019-04-21T03:55:41.551Z,17.73
2019-04-21T03:58:10.685Z,20.07
2019-04-21T04:00:34.673Z,18.07
2019-04-21T04:08:44.767Z,17.00
2019-04-21T04:13:42.258Z,16.63
2019-04-21T04:18:46.716Z,15.33
2019-04-21T04:21:03.065Z,15.07
2019-04-21T04:23:42.402Z,14.70
2019-04-21T04:25:57.693Z,16.30
2019-04-21T04:28:40.237Z,16.60
2019-04-21T04:31:05.003Z,16.30
2019-04-21T04:33:39.209Z,17.33
2019-04-21T04:41:24.457Z,17.67
2019-04-21T04:43:44.595Z,16.10
2019-04-21T04:46:35.361Z,17.23
2019-04-21T04:48:41.959Z,16.47
2019-04-21T04:51:25.255Z,16.63
2019-04-21T04:53:44.369Z,16.33
2019-04-21T05:01:32.901Z,16.93
2019-04-21T05:06:41.911Z,16.80
2019-04-21T05:09:11.021Z,16.57
2019-04-21T05:14:09.978Z,15.63
2019-04-21T05:19:10.725Z,15.30
2019-04-21T05:23:48.407Z,16.27
2019-04-21T05:26:10.938Z,15.70
2019-04-21T05:28:41.964Z,16.40
2019-04-21T05:31:40.036Z,15.70
2019-04-21T05:36:52.390Z,15.83
2019-04-21T05:39:46.786Z,15.10
2019-04-21T05:42:05.104Z,16.17
2019-04-21T05:47:26.506Z,16.83
2019-04-21T05:49:57.194Z,16.97
2019-04-21T05:52:29.087Z,18.43
2019-04-21T05:55:09.582Z,19.20
2019-04-21T05:57:31.065Z,18.83
2019-04-21T06:00:06.197Z,18.73
2019-04-21T06:02:29.268Z,18.90
2019-04-21T06:05:13.657Z,19.43
2019-04-21T06:07:34.853Z,19.93
2019-04-21T06:09:59.687Z,19.50
2019-04-21T06:12:38.270Z,18.87
2019-04-21T06:15:00.961Z,19.00
2019-04-21T06:17:36.225Z,19.20
2019-04-21T06:20:00.272Z,19.43
2019-04-21T06:22:28.967Z,20.13
2019-04-21T06:25:36.039Z,19.53
2019-04-21T06:27:31.166Z,20.27
2019-04-21T06:30:00.142Z,19.97
2019-04-21T06:37:56.493Z,19.97
2019-04-21T06:42:54.009Z,19.53
2019-04-21T06:45:12.872Z,19.93
2019-04-21T06:47:51.196Z,19.57
2019-04-21T06:50:14.615Z,20.27
2019-04-21T06:55:13.823Z,19.53
2019-04-21T06:57:50.470Z,19.63
2019-04-21T07:00:12.065Z,18.87
2019-04-21T07:05:15.484Z,18.93
2019-04-21T07:07:43.182Z,18.60
2019-04-21T07:10:16.764Z,19.93
2019-04-21T07:12:43.078Z,18.83
2019-04-21T07:15:11.272Z,17.83
2019-04-21T07:17:38.756Z,18.83
2019-04-21T07:20:12.506Z,17.73
2019-04-21T07:22:45.534Z,17.07
2019-04-21T07:25:13.721Z,16.87
2019-04-21T07:28:00.029Z,16.73
2019-04-21T07:30:13.543Z,17.57
2019-04-21T07:32:51.538Z,17.00
2019-04-21T07:35:14.495Z,17.20
2019-04-21T07:37:41.349Z,16.60
2019-04-21T07:40:05.236Z,16.90
2019-04-21T07:42:37.963Z,17.17
2019-04-21T07:45:06.065Z,16.43
2019-04-21T07:47:51.776Z,16.17
2019-04-21T07:50:26.343Z,15.63
2019-04-21T07:53:14.787Z,15.40
2019-04-21T07:58:13.233Z,15.53
2019-04-21T08:00:44.720Z,14.97
2019-04-21T08:03:08.148Z,14.70
2019-04-21T08:05:39.228Z,15.37
2019-04-21T08:08:11.386Z,15.10
2019-04-21T08:10:36.319Z,15.53
2019-04-21T08:13:09.881Z,14.13
2019-04-21T08:15:40.287Z,15.20
2019-04-21T08:18:10.190Z,14.87
2019-04-21T08:20:34.637Z,13.87
2019-04-21T08:23:07.600Z,14.33
2019-04-21T08:25:50.841Z,13.60
2019-04-21T08:28:07.400Z,13.97
2019-04-21T08:30:37.447Z,13.63
2019-04-21T08:33:16.181Z,12.30
2019-04-21T08:38:10.371Z,12.10
2019-04-21T08:40:44.092Z,12.60
2019-04-21T08:43:08.828Z,12.17
2019-04-21T08:45:41.548Z,12.47
2019-04-21T08:48:12.135Z,11.67
2019-04-21T08:50:38.924Z,12.10
2019-04-21T08:53:07.865Z,12.47
2019-04-21T08:56:18.489Z,11.57
2019-04-21T08:59:11.297Z,12.10
2019-04-21T09:02:02.653Z,11.97
2019-04-21T09:04:30.549Z,11.63
2019-04-21T09:07:05.160Z,12.27
2019-04-21T09:09:29.098Z,12.43
2019-04-21T09:11:59.400Z,12.57
2019-04-21T09:14:30.232Z,13.20
2019-04-21T09:16:56.356Z,12.17
2019-04-21T09:19:41.243Z,12.30
2019-04-21T09:22:03.928Z,11.80
2019-04-21T09:24:29.304Z,12.40
2019-04-21T09:27:00.531Z,11.90
2019-04-21T09:29:25.014Z,8.40
2019-04-21T09:31:43.514Z,7.40
2019-04-21T09:34:14.341Z,9.80
2019-04-21T09:36:46.754Z,6.60
2019-04-21T09:39:18.297Z,6.97
2019-04-21T09:41:44.933Z,7.43
2019-04-21T09:44:23.892Z,7.40
2019-04-21T09:46:50.558Z,7.97
2019-04-21T09:49:22.079Z,7.30
2019-04-21T09:51:45.998Z,7.00
2019-04-21T09:54:22.340Z,5.93
2019-04-21T09:56:52.353Z,6.00
2019-04-21T09:59:20.540Z,5.80
2019-04-21T10:01:57.525Z,6.07
2019-04-21T10:04:14.283Z,6.13
2019-04-21T10:06:43.138Z,6.60
2019-04-21T10:09:16.053Z,6.00
2019-04-21T10:12:03.137Z,6.40
2019-04-21T10:14:31.457Z,6.70
2019-04-21T10:17:21.572Z,6.63
2019-04-21T10:19:50.661Z,7.40
2019-04-21T10:22:19.046Z,6.50
2019-04-21T10:24:48.712Z,6.50
2019-04-21T10:27:17.295Z,6.50
2019-04-21T10:29:47.240Z,6.70
2019-04-21T10:32:15.564Z,6.23
2019-04-21T10:34:45.276Z,6.40
2019-04-21T10:37:13.713Z,6.53
2019-04-21T10:39:41.956Z,6.83
2019-04-21T10:42:11.307Z,6.53
2019-04-21T10:44:40.916Z,6.13
2019-04-21T10:47:09.348Z,6.63
2019-04-21T10:49:37.654Z,6.83
2019-04-21T10:52:12.989Z,6.90
2019-04-21T10:55:08.283Z,6.90
2019-04-21T10:57:17.104Z,7.23
2019-04-21T10:59:47.883Z,7.13
2019-04-21T11:02:21.161Z,7.10
2019-04-21T11:04:49.217Z,6.60
2019-04-21T11:07:53.014Z,6.20
2019-04-21T11:10:22.727Z,6.40
2019-04-21T11:12:52.525Z,6.20
2019-04-21T11:15:21.158Z,5.93
2019-04-21T11:17:50.658Z,5.80
2019-04-21T11:20:19.229Z,5.13
2019-04-21T11:22:47.545Z,6.27
2019-04-21T11:25:15.986Z,6.10
2019-04-21T11:27:44.930Z,5.77
2019-04-21T11:30:14.036Z,5.53
2019-04-21T11:32:44.952Z,5.83
2019-04-21T11:35:13.386Z,5.33
2019-04-21T11:37:42.190Z,5.40
2019-04-21T11:40:15.833Z,5.03
2019-04-21T11:42:41.904Z,5.47
2019-04-21T11:45:12.511Z,5.73
2019-04-21T11:47:45.989Z,5.90
2019-04-21T11:50:14.976Z,5.33
2019-04-21T11:52:43.254Z,4.70
2019-04-21T11:55:11.389Z,4.53
2019-04-21T11:57:44.637Z,4.80
2019-04-21T12:00:09.564Z,4.83
2019-04-21T12:02:39.460Z,4.80
2019-04-21T12:05:09.879Z,5.00
2019-04-21T12:07:40.920Z,4.50
2019-04-21T12:10:09.251Z,4.20
2019-04-21T12:12:39.255Z,4.53
2019-04-21T12:15:10.771Z,4.37
2019-04-21T12:17:39.443Z,4.43
2019-04-21T12:20:08.695Z,4.20
2019-04-21T12:22:37.407Z,4.50
2019-04-21T12:25:09.216Z,4.47
2019-04-21T12:27:37.998Z,4.20
2019-04-21T12:30:06.260Z,4.10
2019-04-21T12:32:46.391Z,3.83
2019-04-21T12:35:15.751Z,4.10
2019-04-21T12:37:44.824Z,4.47
2019-04-21T12:40:13.057Z,4.07
2019-04-21T12:42:42.397Z,4.20
2019-04-21T12:45:11.561Z,4.20
2019-04-21T12:47:39.842Z,4.10
2019-04-21T12:50:08.753Z,4.60
2019-04-21T12:52:37.800Z,4.47
2019-04-21T12:55:06.626Z,3.73
2019-04-21T12:57:35.423Z,4.20
2019-04-21T13:00:04.763Z,4.53
2019-04-21T13:02:33.838Z,4.13
2019-04-21T13:05:02.229Z,4.10
2019-04-21T13:07:31.208Z,3.90
2019-04-21T13:10:00.116Z,3.53
2019-04-21T13:12:28.971Z,3.70
2019-04-21T13:14:59.158Z,3.50
2019-04-21T13:17:27.762Z,3.57
2019-04-21T13:19:56.984Z,3.60
2019-04-21T13:22:32.087Z,2.87
2019-04-21T13:25:00.408Z,3.20
2019-04-21T13:27:29.104Z,3.27
2019-04-21T13:29:58.075Z,3.30
2019-04-21T13:32:26.952Z,3.20
2019-04-21T13:34:55.123Z,3.50
2019-04-21T13:37:23.657Z,3.20
2019-04-21T13:40:39.785Z,3.53
2019-04-21T13:42:55.309Z,3.43
2019-04-21T13:45:21.918Z,3.10
2019-04-21T13:47:50.802Z,3.33
2019-04-21T13:50:19.398Z,3.30
2019-04-21T13:52:48.870Z,3.30
2019-04-21T13:55:19.377Z,3.10
2019-04-21T13:57:48.370Z,3.57
2019-04-21T14:00:17.274Z,3.10
2019-04-21T14:02:46.948Z,3.17
2019-04-21T14:05:16.438Z,2.97
2019-04-21T14:07:46.060Z,2.80
2019-04-21T14:10:16.075Z,3.30
2019-04-21T14:12:46.596Z,3.13
2019-04-21T14:15:15.619Z,3.00
2019-04-21T14:17:44.678Z,2.90
2019-04-21T14:20:13.243Z,3.00
2019-04-21T14:22:42.211Z,3.63
2019-04-21T14:25:12.052Z,3.13
2019-04-21T14:27:41.628Z,3.23
2019-04-21T14:30:10.556Z,3.37
2019-04-21T14:32:40.095Z,3.23
2019-04-21T14:35:09.074Z,3.53
2019-04-21T14:37:38.382Z,3.40
2019-04-21T14:40:13.644Z,3.57
2019-04-21T14:42:38.225Z,3.63
2019-04-21T14:45:09.242Z,3.40
2019-04-21T14:47:56.786Z,3.47
2019-04-21T14:50:44.318Z,3.53
2019-04-21T14:53:25.545Z,3.60
2019-04-21T14:55:55.313Z,3.97
2019-04-21T14:58:25.514Z,3.30
2019-04-21T15:00:59.821Z,3.60
2019-04-21T15:03:30.009Z,3.53
2019-04-21T15:05:58.214Z,6.53
2019-04-21T15:08:27.035Z,5.93
2019-04-21T15:10:56.860Z,5.07
2019-04-21T15:13:25.929Z,4.80
2019-04-21T15:15:54.599Z,5.90
2019-04-21T15:18:23.012Z,4.80
2019-04-21T15:20:51.325Z,3.50
2019-04-21T15:23:20.431Z,3.67
2019-04-21T15:25:52.283Z,4.10
2019-04-21T15:28:21.955Z,4.60
2019-04-21T15:30:50.886Z,5.90
2019-04-21T15:33:20.335Z,6.93
2019-04-21T15:35:49.165Z,6.07
2019-04-21T15:38:17.883Z,4.13
2019-04-21T15:40:52.165Z,3.70
2019-04-21T15:43:16.386Z,3.70
2019-04-21T15:45:44.613Z,3.60
2019-04-21T15:48:13.989Z,3.57
2019-04-21T15:50:43.974Z,3.43
2019-04-21T15:53:13.780Z,3.80
2019-04-21T15:56:11.047Z,3.40
2019-04-21T15:59:16.713Z,3.33
2019-04-21T16:01:56.727Z,3.10
2019-04-21T16:04:25.403Z,3.10
2019-04-21T16:06:53.709Z,3.53
2019-04-21T16:09:25.930Z,3.10
2019-04-21T16:11:53.593Z,4.50
2019-04-21T16:14:24.801Z,3.13
2019-04-21T16:17:01.265Z,3.00
2019-04-21T16:19:33.216Z,3.90
2019-04-21T16:22:03.065Z,3.70
2019-04-21T16:24:31.756Z,3.03
2019-04-21T16:27:01.710Z,2.90
2019-04-21T16:29:29.648Z,3.60
2019-04-21T16:31:59.650Z,3.10
2019-04-21T16:34:42.738Z,3.43
2019-04-21T16:37:03.411Z,3.70
2019-04-21T16:39:31.912Z,3.70
2019-04-21T16:42:00.403Z,3.20
2019-04-21T16:44:29.419Z,3.53
2019-04-21T16:47:01.209Z,3.30
2019-04-21T16:49:29.789Z,3.40
2019-04-21T16:52:16.297Z,3.63
2019-04-21T16:54:47.728Z,3.83
2019-04-21T16:57:22.141Z,2.93
2019-04-21T16:59:56.765Z,3.60
2019-04-21T17:02:25.079Z,3.83
2019-04-21T17:04:54.117Z,3.70
2019-04-21T17:07:22.456Z,3.30
2019-04-21T17:09:50.736Z,3.53
2019-04-21T17:12:20.205Z,3.33
2019-04-21T17:16:31.924Z,3.30
2019-04-21T17:17:48.451Z,3.70
2019-04-21T17:19:54.727Z,3.60
2019-04-21T17:22:23.626Z,3.40
2019-04-21T17:24:52.628Z,4.10
2019-04-21T17:27:23.010Z,3.70
2019-04-21T17:29:52.625Z,3.40
2019-04-21T17:32:27.306Z,3.97
2019-04-21T17:34:52.110Z,3.63
2019-04-21T17:37:23.540Z,3.73
2019-04-21T17:39:54.514Z,4.20
2019-04-21T17:42:29.784Z,4.00
2019-04-21T17:44:53.276Z,4.17
2019-04-21T17:47:33.925Z,4.30
2019-04-21T17:50:11.598Z,4.20
2019-04-21T17:52:56.361Z,4.27
2019-04-21T17:55:27.782Z,3.63
2019-04-21T17:58:09.366Z,4.03
2019-04-21T18:01:09.523Z,4.23
2019-04-21T18:03:28.123Z,4.30
2019-04-21T18:05:42.067Z,4.53
2019-04-21T18:08:14.039Z,5.20
2019-04-21T18:10:41.841Z,5.00
2019-04-21T18:13:04.453Z,5.00
2019-04-21T18:15:51.971Z,4.63
2019-04-21T18:18:10.387Z,5.00
2019-04-21T18:20:41.819Z,5.57
2019-04-21T18:23:46.131Z,5.27
2019-04-21T18:26:08.126Z,5.60
2019-04-21T18:28:32.516Z,5.60
2019-04-21T18:31:20.861Z,6.40
2019-04-21T18:34:12.774Z,5.40
2019-04-21T18:36:48.815Z,5.90
2019-04-21T18:39:50.041Z,5.20
2019-04-21T18:42:26.700Z,5.20
2019-04-21T18:45:38.736Z,5.40
2019-04-21T18:47:55.530Z,5.60
2019-04-21T18:50:41.746Z,5.37
2019-04-21T18:53:19.420Z,6.27
2019-04-21T18:55:43.515Z,6.63
2019-04-21T18:58:07.323Z,6.50
2019-04-21T19:00:38.749Z,7.20
2019-04-21T19:03:11.490Z,7.10
2019-04-21T19:05:45.742Z,7.03
2019-04-21T19:08:27.923Z,6.87
2019-04-21T19:11:03.944Z,7.57
2019-04-21T19:13:39.859Z,7.13
2019-04-21T19:16:17.048Z,47.50
2019-04-21T19:20:53.830Z,8.47
2019-04-21T19:23:41.378Z,8.83
2019-04-21T19:26:11.333Z,8.10
2019-04-21T19:28:24.769Z,7.10
2019-04-21T19:31:07.704Z,6.67
2019-04-21T19:33:27.410Z,6.97
2019-04-21T19:35:41.453Z,7.10
2019-04-21T19:38:14.076Z,7.30
2019-04-21T19:40:52.220Z,11.20
2019-04-21T19:43:33.727Z,9.90
2019-04-21T19:45:54.115Z,6.70
2019-04-21T19:48:28.021Z,6.33
2019-04-21T19:50:57.153Z,6.47
2019-04-21T19:53:26.221Z,6.97
2019-04-21T19:55:40.480Z,7.13
2019-04-21T19:58:09.005Z,6.10
2019-04-21T20:00:37.335Z,6.30
2019-04-21T20:03:08.423Z,6.87
2019-04-21T20:05:45.398Z,5.73
2019-04-21T20:08:23.701Z,5.60
2019-04-21T20:10:55.094Z,6.10
2019-04-21T20:13:35.136Z,5.83
2019-04-21T20:15:58.384Z,6.10
2019-04-21T20:18:24.529Z,5.10
2019-04-21T20:20:41.962Z,6.00
2019-04-21T20:23:16.906Z,5.73
2019-04-21T20:25:47.452Z,5.80
2019-04-21T20:28:21.169Z,6.07
2019-04-21T20:31:01.430Z,5.67
2019-04-21T20:36:01.321Z,6.17
2019-04-21T20:38:19.179Z,6.60
2019-04-21T20:40:52.697Z,6.70
2019-04-21T20:43:33.714Z,6.17
2019-04-21T20:48:21.289Z,6.43
2019-04-21T20:51:00.266Z,6.23
2019-04-21T20:53:30.243Z,7.10
2019-04-21T20:55:53.081Z,7.13
2019-04-21T20:58:32.934Z,6.73
2019-04-21T21:03:33.631Z,7.20
2019-04-21T21:05:55.696Z,7.83
2019-04-21T21:08:32.770Z,7.40
2019-04-21T21:10:55.222Z,7.70
2019-04-21T21:13:32.282Z,7.60
2019-04-21T21:16:10.742Z,8.33
2019-04-21T21:18:51.998Z,7.23
2019-04-21T21:20:59.330Z,8.00
2019-04-21T21:23:33.485Z,7.10
2019-04-21T21:26:01.935Z,8.10
2019-04-21T21:28:26.649Z,7.57
2019-04-21T21:30:55.628Z,7.37
2019-04-21T21:33:27.547Z,7.23
2019-04-21T21:35:56.705Z,7.80
2019-04-21T21:38:31.521Z,7.53
2019-04-21T21:40:53.139Z,7.47
2019-04-21T21:43:17.578Z,8.37
2019-04-21T21:45:50.236Z,7.40
2019-04-21T21:48:30.064Z,6.83
2019-04-21T21:50:49.193Z,7.33
2019-04-21T21:53:18.773Z,7.93
2019-04-21T21:55:42.648Z,7.77
2019-04-21T21:58:12.344Z,7.50
2019-04-21T22:00:48.562Z,6.30
2019-04-21T22:03:22.711Z,7.60
2019-04-21T22:05:49.008Z,7.60
2019-04-21T22:08:12.409Z,7.40
2019-04-21T22:10:41.430Z,7.40
2019-04-21T22:13:14.692Z,7.20
2019-04-21T22:15:39.653Z,7.70
2019-04-21T22:18:28.796Z,7.23
2019-04-21T22:20:57.577Z,7.50
2019-04-21T22:23:19.271Z,7.40
2019-04-21T22:25:41.921Z,7.10
2019-04-21T22:28:11.666Z,7.20
2019-04-21T22:30:44.729Z,7.23
2019-04-21T22:33:13.768Z,7.10
2019-04-21T22:35:48.905Z,7.43
2019-04-21T22:38:24.709Z,6.67
2019-04-21T22:40:50.706Z,7.20
2019-04-21T22:43:19.688Z,6.73
2019-04-21T22:45:40.993Z,6.93
2019-04-21T22:48:14.278Z,7.10
2019-04-21T22:50:40.589Z,7.07
2019-04-21T22:53:10.632Z,7.33
2019-04-21T22:55:39.128Z,7.10
2019-04-21T22:58:07.752Z,7.50
2019-04-21T23:00:41.325Z,7.83
2019-04-21T23:03:13.607Z,7.53
2019-04-21T23:05:41.709Z,7.70
2019-04-21T23:08:09.255Z,7.33
2019-04-21T23:10:41.489Z,8.37
2019-04-21T23:13:13.104Z,7.77
2019-04-21T23:15:45.531Z,8.53
2019-04-21T23:18:25.935Z,8.80
2019-04-21T23:20:57.776Z,8.17
2019-04-21T23:23:37.086Z,8.40
2019-04-21T23:25:56.094Z,8.73
2019-04-21T23:28:29.695Z,7.80
2019-04-21T23:31:00.848Z,7.80
2019-04-21T23:33:15.497Z,7.20
2019-04-21T23:35:45.304Z,7.90
2019-04-21T23:38:12.546Z,7.47
2019-04-21T23:40:49.982Z,7.03
2019-04-21T23:43:16.818Z,7.03
2019-04-21T23:45:44.652Z,6.63
2019-04-21T23:48:27.501Z,6.90
2019-04-21T23:50:49.110Z,6.63
2019-04-21T23:53:11.222Z,6.80
2019-04-21T23:55:39.533Z,6.80
2019-04-21T23:58:16.365Z,7.10
